20°C Temp
11°C Dewpoint
56% Humidity
Temperature
11 KM/H
7 MPH
6 KTS
360°
Due North

Wind Speed
Partly Cloudy
Conditions
Pressure 1022.92 (hPa) - 30.21 (in)
Visibility 5.0 (mi) - 8.0 (km)

Current Conditions
LEJR
Location 25(km)
Metar :LEJR 021430Z 36006KT 320V100 8000 FEW033 20/11 Q1023
Tue 2nd March 16:30 pm

Airport
  Metar Aviation API Data Provided by https://www.checkwx.com/ PHP scripts by weather34.com ©2021